Time;durP1;ratioP1;P1;durP2;ratioP2;P2;SDS_P1;SDS_P2;PMS_P1;PMS_P2;Temp;Humidity;BMP_temperature;BMP_pressure;BME280_temperature;BME280_humidity;BME280_pressure;Samples;Min_cycle;Max_cycle;Signal;HPM_P1;HPM_P2
2023/10/10 00:01:43;;;;;;;;;;;;;;;19.67;53.50;97127.48;606048;234;66880;-69
2023/10/10 00:04:19;;;;;;;;;;;;;;;19.69;53.48;97137.88;606002;234;62694;-69
2023/10/10 00:06:43;;;;;;;;;;;;;;;19.69;53.51;97136.00;605818;234;65687;-70
2023/10/10 00:09:10;;;;;;;;;;;;;;;19.69;53.51;97132.55;605966;234;67236;-70
2023/10/10 00:11:45;;;;;;;;;;;;;;;19.68;53.54;97138.95;606025;234;62632;-70
2023/10/10 00:14:19;;;;;;;;;;;;;;;19.68;53.54;97144.28;605723;234;64749;-70
2023/10/10 00:16:37;;;;;;;;;;;;;;;19.68;53.57;97129.08;605332;234;67132;-70
2023/10/10 00:21:41;;;;;;;;;;;;;;;19.69;53.57;97127.21;597468;234;67113;-70
2023/10/10 00:24:12;;;;;;;;;;;;;;;19.70;53.62;97137.63;606030;234;67286;-70
2023/10/10 00:26:40;;;;;;;;;;;;;;;19.69;53.63;97138.67;605992;234;62501;-70
2023/10/10 00:29:08;;;;;;;;;;;;;;;19.69;53.66;97146.67;606024;234;67153;-70
2023/10/10 00:31:43;;;;;;;;;;;;;;;19.69;53.66;97145.88;606011;234;64837;-70
2023/10/10 00:34:07;;;;;;;;;;;;;;;19.68;53.69;97150.41;605769;234;62431;-70
2023/10/10 00:36:35;;;;;;;;;;;;;;;19.69;53.70;97157.34;605994;234;67264;-70
2023/10/10 00:39:12;;;;;;;;;;;;;;;19.69;53.72;97167.20;606014;234;64717;-70
2023/10/10 00:41:56;;;;;;;;;;;;;;;19.69;53.78;97161.88;605806;234;65062;-70
2023/10/10 00:44:12;;;;;;;;;;;;;;;19.68;53.78;97169.08;604414;234;67373;-68
2023/10/10 00:46:37;;;;;;;;;;;;;;;19.69;53.80;97169.88;605878;234;65882;-68
2023/10/10 00:49:07;;;;;;;;;;;;;;;19.69;53.80;97177.87;606019;234;65540;-68
2023/10/10 00:51:34;;;;;;;;;;;;;;;19.69;53.82;97183.20;605965;234;69279;-68
2023/10/10 00:54:17;;;;;;;;;;;;;;;19.69;53.82;97173.33;606029;234;66927;-68
2023/10/10 00:56:44;;;;;;;;;;;;;;;19.69;53.83;97184.00;605764;234;64669;-68
2023/10/10 00:59:09;;;;;;;;;;;;;;;19.67;53.83;97188.81;605905;234;67326;-69
2023/10/10 01:01:40;;;;;;;;;;;;;;;19.68;53.85;97187.73;606005;234;67046;-69
2023/10/10 01:04:07;;;;;;;;;;;;;;;19.69;53.85;97188.53;605934;234;64568;-69
2023/10/10 01:06:39;;;;;;;;;;;;;;;19.68;53.86;97193.07;605986;234;66674;-69
2023/10/10 01:09:20;;;;;;;;;;;;;;;19.68;53.87;97190.41;605919;234;64713;-69
2023/10/10 01:11:34;;;;;;;;;;;;;;;19.67;53.87;97180.81;605148;234;62382;-69
2023/10/10 01:14:03;;;;;;;;;;;;;;;19.67;53.87;97186.14;605973;234;64788;-69
2023/10/10 01:16:33;;;;;;;;;;;;;;;19.68;53.87;97179.73;606045;234;66794;-69
2023/10/10 01:19:00;;;;;;;;;;;;;;;19.68;53.88;97181.61;605987;234;64661;-69
2023/10/10 01:21:32;;;;;;;;;;;;;;;19.67;53.91;97180.81;606016;234;67335;-69
2023/10/10 01:24:11;;;;;;;;;;;;;;;19.68;53.91;97181.61;606015;234;68012;-69
2023/10/10 01:26:43;;;;;;;;;;;;;;;19.68;53.92;97182.41;605495;234;65028;-69
2023/10/10 01:29:50;;;;;;;;;;;;;;;19.68;53.93;97193.07;605483;234;67124;-69
2023/10/10 01:31:32;;;;;;;;;;;;;;;19.68;53.94;97192.27;600894;234;67131;-69
2023/10/10 01:34:00;;;;;;;;;;;;;;;19.68;53.96;97197.61;605947;234;62285;-69
2023/10/10 01:36:29;;;;;;;;;;;;;;;19.67;53.97;97202.14;605945;234;67373;-69
2023/10/10 01:39:07;;;;;;;;;;;;;;;19.68;53.96;97202.94;605989;234;67712;-64
2023/10/10 01:41:33;;;;;;;;;;;;;;;19.68;53.99;97202.94;605453;234;64659;-64
2023/10/10 01:44:17;;;;;;;;;;;;;;;19.67;54.02;97202.14;605960;234;67013;-65
2023/10/10 01:46:40;;;;;;;;;;;;;;;19.68;54.04;97202.94;605444;234;67023;-64
2023/10/10 01:49:20;;;;;;;;;;;;;;;19.67;54.05;97202.14;605911;234;62791;-64
2023/10/10 01:51:44;;;;;;;;;;;;;;;19.68;54.05;97206.40;605711;234;67459;-63
2023/10/10 01:54:15;;;;;;;;;;;;;;;19.67;54.08;97202.14;606001;234;67315;-63
2023/10/10 01:56:43;;;;;;;;;;;;;;;19.67;54.10;97203.98;606006;234;64854;-63
2023/10/10 01:59:18;;;;;;;;;;;;;;;19.67;54.10;97201.31;605968;234;67225;-63
2023/10/10 02:01:43;;;;;;;;;;;;;;;19.67;54.14;97195.98;605815;234;67085;-64
2023/10/10 02:04:11;;;;;;;;;;;;;;;19.67;54.17;97198.65;605961;234;63521;-64
2023/10/10 02:06:45;;;;;;;;;;;;;;;19.67;54.18;97201.31;605986;234;67550;-63
2023/10/10 02:09:11;;;;;;;;;;;;;;;19.67;54.14;97206.64;605716;234;64001;-63
2023/10/10 02:11:49;;;;;;;;;;;;;;;19.67;54.12;97206.64;605947;234;64582;-64
2023/10/10 02:14:11;;;;;;;;;;;;;;;19.67;54.14;97209.31;605452;234;65079;-64
2023/10/10 02:16:40;;;;;;;;;;;;;;;19.68;54.17;97216.27;605852;234;67225;-63
2023/10/10 02:19:24;;;;;;;;;;;;;;;19.68;54.17;97209.07;605980;234;62468;-64
2023/10/10 02:21:48;;;;;;;;;;;;;;;19.66;54.18;97221.84;605655;234;67254;-63
2023/10/10 02:24:39;;;;;;;;;;;;;;;19.66;54.18;97227.18;606032;234;67100;-63
2023/10/10 02:26:57;;;;;;;;;;;;;;;19.67;54.18;97214.64;605268;234;63308;-63
2023/10/10 02:32:12;;;;;;;;;;;;;;;19.67;54.21;97209.31;605995;234;67122;-63
2023/10/10 02:34:37;;;;;;;;;;;;;;;19.67;54.20;97211.98;605742;234;62154;-63
2023/10/10 02:40:31;;;;;;;;;;;;;;;19.66;54.20;97210.38;605999;234;67377;-63
2023/10/10 02:42:25;;;;;;;;;;;;;;;19.66;54.22;97208.52;603083;234;64931;-63
2023/10/10 02:44:57;;;;;;;;;;;;;;;19.66;54.24;97216.52;606007;234;66750;-63
2023/10/10 02:47:30;;;;;;;;;;;;;;;19.65;54.24;97214.89;605911;234;64577;-63
2023/10/10 02:49:55;;;;;;;;;;;;;;;19.65;54.29;97212.22;605627;234;65257;-63
2023/10/10 02:52:25;;;;;;;;;;;;;;;19.66;54.27;97211.19;605864;234;67456;-63
2023/10/10 02:54:56;;;;;;;;;;;;;;;19.66;54.30;97221.05;605891;234;67009;-63
2023/10/10 02:57:27;;;;;;;;;;;;;;;19.66;54.30;97207.72;605999;234;64752;-63
2023/10/10 03:02:41;;;;;;;;;;;;;;;19.66;54.29;97223.72;605904;234;67361;-63
2023/10/10 03:05:14;;;;;;;;;;;;;;;19.66;54.28;97226.38;605942;234;64765;-63
2023/10/10 03:07:41;;;;;;;;;;;;;;;19.65;54.29;97222.89;605708;234;67703;-63
2023/10/10 03:10:22;;;;;;;;;;;;;;;19.65;54.33;97209.55;605922;234;66475;-63
2023/10/10 03:12:37;;;;;;;;;;;;;;;19.65;54.35;97225.55;605177;234;64586;-63
2023/10/10 03:18:52;;;;;;;;;;;;;;;19.65;54.33;97225.55;605986;234;67553;-65
2023/10/10 03:25:54;;;;;;;;;;;;;;;19.66;54.39;97213.05;605985;234;67355;-64
2023/10/10 03:28:32;;;;;;;;;;;;;;;19.65;54.39;97209.55;606027;234;65164;-64
2023/10/10 03:31:10;;;;;;;;;;;;;;;19.63;54.39;97217.00;605891;234;67909;-63
2023/10/10 05:25:51;;;;;;;;;;;;;;;19.61;54.89;97277.77;605958;234;67482;-68
2023/10/10 05:28:20;;;;;;;;;;;;;;;19.61;54.92;97272.43;605923;234;66955;-68
2023/10/10 05:30:47;;;;;;;;;;;;;;;19.62;54.88;97283.92;605985;234;65018;-69
2023/10/10 05:33:19;;;;;;;;;;;;;;;19.62;54.89;97297.25;605944;234;67209;-69
2023/10/10 05:35:44;;;;;;;;;;;;;;;19.62;54.87;97299.92;605802;234;66920;-69
2023/10/10 05:38:11;;;;;;;;;;;;;;;19.62;54.89;97308.72;606004;234;64738;-68
2023/10/10 05:40:39;;;;;;;;;;;;;;;19.62;54.95;97300.72;605975;234;66959;-69
2023/10/10 05:43:09;;;;;;;;;;;;;;;19.62;54.95;97311.38;605996;234;64822;-69
2023/10/10 05:45:37;;;;;;;;;;;;;;;19.62;54.97;97302.59;605991;234;62514;-68
2023/10/10 05:48:05;;;;;;;;;;;;;;;19.65;54.98;97307.41;605960;234;67427;-69
2023/10/10 05:50:33;;;;;;;;;;;;;;;19.62;54.96;97299.92;604851;234;67222;-69
2023/10/10 05:53:07;;;;;;;;;;;;;;;19.62;54.91;97316.72;604550;234;64690;-68
2023/10/10 05:55:37;;;;;;;;;;;;;;;19.63;54.94;97312.98;604496;234;67666;-69
2023/10/10 05:58:05;;;;;;;;;;;;;;;19.63;54.94;97312.19;604425;234;67021;-74
2023/10/10 06:00:36;;;;;;;;;;;;;;;19.63;54.93;97312.19;604559;234;64838;-74
2023/10/10 06:03:12;;;;;;;;;;;;;;;19.64;54.95;97325.27;604545;234;67169;-73
2023/10/10 06:05:34;;;;;;;;;;;;;;;19.64;54.99;97322.61;608574;232;67072;-74
2023/10/10 06:08:05;;;;;;;;;;;;;;;19.63;54.96;97323.64;611311;232;63440;-73
2023/10/10 06:10:32;;;;;;;;;;;;;;;19.64;55.09;97330.60;609659;231;67377;-71
2023/10/10 06:13:11;;;;;;;;;;;;;;;19.63;55.45;97322.84;604910;234;67107;-79
2023/10/10 06:15:36;;;;;;;;;;;;;;;19.62;55.47;97327.38;604939;234;62568;-77
2023/10/10 06:18:18;;;;;;;;;;;;;;;19.62;55.30;97340.71;605884;234;67010;-73
2023/10/10 06:20:47;;;;;;;;;;;;;;;19.62;55.91;97342.58;605637;234;64593;-71
2023/10/10 06:23:15;;;;;;;;;;;;;;;19.60;56.44;97350.81;605152;234;64793;-74
2023/10/10 06:25:43;;;;;;;;;;;;;;;19.60;56.03;97340.16;605276;234;67110;-75
2023/10/10 06:28:23;;;;;;;;;;;;;;;19.60;56.23;97350.81;605144;234;63679;-75
2023/10/10 06:30:54;;;;;;;;;;;;;;;19.58;55.01;97342.26;604269;234;62803;-71
2023/10/10 06:33:33;;;;;;;;;;;;;;;19.58;57.57;97358.26;605219;234;64814;-79
2023/10/10 06:35:54;;;;;;;;;;;;;;;19.57;59.74;97375.32;604153;234;67110;-76
2023/10/10 06:38:24;;;;;;;;;;;;;;;19.55;57.63;97369.43;605304;232;65294;-76
2023/10/10 06:40:55;;;;;;;;;;;;;;;19.55;56.80;97372.09;604450;234;67036;-74
2023/10/10 06:43:24;;;;;;;;;;;;;;;19.56;56.99;97371.05;604226;234;64972;-74
2023/10/10 06:45:57;;;;;;;;;;;;;;;19.56;56.80;97376.39;604599;234;64768;-74
2023/10/10 06:48:40;;;;;;;;;;;;;;;19.55;57.42;97377.42;604995;234;67079;-73
2023/10/10 06:50:56;;;;;;;;;;;;;;;19.55;59.92;97371.30;604407;234;66886;-78
2023/10/10 06:53:35;;;;;;;;;;;;;;;19.57;54.57;97367.33;605339;234;62508;-73
2023/10/10 06:56:05;;;;;;;;;;;;;;;19.57;53.95;97377.19;604827;234;64420;-72
2023/10/10 06:58:32;;;;;;;;;;;;;;;19.57;53.81;97369.98;604805;234;67989;-73
2023/10/10 07:01:04;;;;;;;;;;;;;;;19.58;54.23;97384.92;605457;234;65621;-74
2023/10/10 07:03:39;;;;;;;;;;;;;;;19.60;54.36;97392.67;605680;234;68137;-72
2023/10/10 07:06:03;;;;;;;;;;;;;;;19.60;54.45;97385.48;605652;234;66802;-72
2023/10/10 07:08:34;;;;;;;;;;;;;;;19.61;54.60;97389.73;605836;234;64573;-74
2023/10/10 07:11:00;;;;;;;;;;;;;;;19.61;54.71;97400.41;605908;234;66867;-76
2023/10/10 07:13:30;;;;;;;;;;;;;;;19.62;54.83;97395.90;605783;234;64482;-74
2023/10/10 07:15:59;;;;;;;;;;;;;;;19.62;54.92;97402.03;605927;234;64684;-72
2023/10/10 07:18:27;;;;;;;;;;;;;;;19.62;54.97;97394.03;604891;234;64948;-73
2023/10/10 07:21:06;;;;;;;;;;;;;;;19.63;54.96;97397.50;604599;234;66950;-72
2023/10/10 07:23:37;;;;;;;;;;;;;;;19.62;54.92;97394.03;603759;234;64940;-73
2023/10/10 07:26:06;;;;;;;;;;;;;;;19.63;54.92;97403.63;604690;234;64582;-74
2023/10/10 07:28:47;;;;;;;;;;;;;;;19.63;54.88;97397.50;605388;234;66984;-75
2023/10/10 07:31:07;;;;;;;;;;;;;;;19.64;54.94;97399.09;604168;234;64705;-74
2023/10/10 07:33:40;;;;;;;;;;;;;;;19.64;54.92;97407.92;604020;234;64835;-74
2023/10/10 07:36:05;;;;;;;;;;;;;;;19.65;54.90;97406.86;604032;234;64810;-75
2023/10/10 07:38:35;;;;;;;;;;;;;;;19.65;54.81;97406.06;604447;234;64850;-74
2023/10/10 07:41:04;;;;;;;;;;;;;;;19.64;54.73;97410.59;604467;234;67239;-75
2023/10/10 07:43:34;;;;;;;;;;;;;;;19.66;54.68;97416.48;604473;234;66656;-75
2023/10/10 07:46:22;;;;;;;;;;;;;;;19.65;54.66;97414.86;604693;234;62638;-74
2023/10/10 07:48:46;;;;;;;;;;;;;;;19.65;54.58;97414.86;603997;234;65079;-74
2023/10/10 07:51:16;;;;;;;;;;;;;;;19.64;54.57;97413.26;604721;234;65285;-73
2023/10/10 07:53:44;;;;;;;;;;;;;;;19.66;54.55;97413.02;604705;234;64581;-73
2023/10/10 07:56:12;;;;;;;;;;;;;;;19.66;54.65;97423.69;605005;234;65168;-72
2023/10/10 07:58:56;;;;;;;;;;;;;;;19.66;54.71;97423.69;605091;234;64587;-73
2023/10/10 08:01:21;;;;;;;;;;;;;;;19.65;54.67;97430.86;604869;234;64856;-72
2023/10/10 08:03:48;;;;;;;;;;;;;;;19.66;54.68;97437.81;605028;234;65036;-72
2023/10/10 08:06:21;;;;;;;;;;;;;;;19.66;54.74;97435.15;604295;234;66918;-72
2023/10/10 08:08:56;;;;;;;;;;;;;;;19.67;54.66;97438.61;605032;234;64736;-72
2023/10/10 08:11:35;;;;;;;;;;;;;;;19.66;54.80;97440.48;604218;234;66807;-71
2023/10/10 08:13:59;;;;;;;;;;;;;;;19.67;55.42;97438.61;602645;234;63046;-72
2023/10/10 08:16:29;;;;;;;;;;;;;;;19.66;56.46;97432.48;602238;234;62137;-71
2023/10/10 08:18:55;;;;;;;;;;;;;;;19.66;56.31;97434.34;602410;235;65170;-73
2023/10/10 08:21:23;;;;;;;;;;;;;;;19.66;56.62;97435.15;602476;235;67116;-70
2023/10/10 08:23:56;;;;;;;;;;;;;;;19.66;56.26;97429.02;602418;235;64601;-71
2023/10/10 08:26:24;;;;;;;;;;;;;;;19.65;55.84;97417.52;595821;235;69096;-72
2023/10/10 08:28:49;;;;;;;;;;;;;;;19.66;55.36;97423.69;602251;234;66918;-73
2023/10/10 08:31:17;;;;;;;;;;;;;;;19.66;56.22;97421.81;602432;235;62395;-73
2023/10/10 08:33:46;;;;;;;;;;;;;;;19.66;56.14;97411.16;602016;234;65875;-73
2023/10/10 08:36:23;;;;;;;;;;;;;;;19.66;55.95;97419.15;602310;234;67038;-73
2023/10/10 08:38:43;;;;;;;;;;;;;;;19.66;56.93;97424.48;601803;234;64825;-72
2023/10/10 08:41:10;;;;;;;;;;;;;;;19.67;56.29;97409.28;601576;234;65029;-74
2023/10/10 08:43:39;;;;;;;;;;;;;;;19.66;56.23;97411.16;601908;234;64569;-72
2023/10/10 08:46:08;;;;;;;;;;;;;;;19.66;55.73;97413.02;601573;234;64939;-72
2023/10/10 08:48:38;;;;;;;;;;;;;;;19.67;56.62;97410.11;602436;234;64743;-72
2023/10/10 08:51:05;;;;;;;;;;;;;;;19.67;56.38;97417.28;601123;234;66902;-74
2023/10/10 08:53:38;;;;;;;;;;;;;;;19.66;55.67;97408.48;601382;234;64553;-72
2023/10/10 08:56:06;;;;;;;;;;;;;;;19.67;55.15;97412.78;602063;234;67281;-75
2023/10/10 08:58:35;;;;;;;;;;;;;;;19.67;55.07;97415.45;602474;234;66704;-75
2023/10/10 09:01:05;;;;;;;;;;;;;;;19.67;55.02;97412.78;602342;234;64694;-75
2023/10/10 09:03:34;;;;;;;;;;;;;;;19.69;54.95;97413.31;602488;235;64796;-75
2023/10/10 09:06:23;;;;;;;;;;;;;;;19.67;55.02;97412.78;601944;234;65181;-77
2023/10/10 09:08:50;;;;;;;;;;;;;;;19.69;54.88;97431.97;601493;234;65091;-77
2023/10/10 09:11:24;;;;;;;;;;;;;;;19.69;54.88;97421.31;602038;234;64951;-75
2023/10/10 09:13:51;;;;;;;;;;;;;;;19.68;54.86;97425.05;602421;235;64839;-74
2023/10/10 09:16:17;;;;;;;;;;;;;;;19.69;54.88;97429.31;602357;235;63439;-77
2023/10/10 09:18:45;;;;;;;;;;;;;;;19.69;54.98;97439.97;602121;235;69442;-74
2023/10/10 09:21:19;;;;;;;;;;;;;;;19.70;54.77;97435.47;602413;235;67104;-74
2023/10/10 09:24:06;;;;;;;;;;;;;;;19.69;54.82;97434.64;599609;235;62577;-73
2023/10/10 09:26:29;;;;;;;;;;;;;;;19.70;55.06;97438.14;601375;235;66890;-71
2023/10/10 09:29:03;;;;;;;;;;;;;;;19.70;54.78;97452.27;602093;235;66772;-74
2023/10/10 09:31:33;;;;;;;;;;;;;;;19.70;58.19;97452.27;599545;235;62557;-74
2023/10/10 09:34:06;;;;;;;;;;;;;;;19.70;54.95;97454.14;602437;235;68392;-73
2023/10/10 09:36:50;;;;;;;;;;;;;;;19.70;54.87;97457.61;602284;235;66996;-72
2023/10/10 09:39:25;;;;;;;;;;;;;;;19.70;54.92;97457.61;601943;235;64496;-73
2023/10/10 09:42:00;;;;;;;;;;;;;;;19.70;54.75;97451.47;601684;235;67047;-74
2023/10/10 09:49:52;;;;;;;;;;;;;;;19.70;54.77;97454.94;601557;234;64876;-71
2023/10/10 09:55:46;;;;;;;;;;;;;;;19.71;54.96;97447.73;602820;235;65115;-71
2023/10/10 09:57:42;;;;;;;;;;;;;;;19.70;54.87;97446.94;597072;235;66866;-74
2023/10/10 10:00:10;;;;;;;;;;;;;;;19.70;54.98;97446.94;602858;235;67038;-74
2023/10/10 10:02:43;;;;;;;;;;;;;;;19.70;55.42;97449.61;603238;234;46067;-74
2023/10/10 10:05:18;;;;;;;;;;;;;;;19.71;56.24;97442.41;603081;235;64872;-72
2023/10/10 10:07:56;;;;;;;;;;;;;;;19.71;57.74;97443.20;603109;235;64807;-71
2023/10/10 10:10:18;;;;;;;;;;;;;;;19.71;55.67;97437.07;602694;235;63571;-73
2023/10/10 10:12:47;;;;;;;;;;;;;;;19.72;55.10;97441.34;603510;234;64193;-73
2023/10/10 10:15:19;;;;;;;;;;;;;;;19.73;55.13;97440.30;601454;234;66716;-73
2023/10/10 10:17:48;;;;;;;;;;;;;;;19.73;55.33;97438.43;605695;234;62485;-73
2023/10/10 10:20:34;;;;;;;;;;;;;;;19.73;55.25;97438.43;605845;234;68154;-74
2023/10/10 10:22:59;;;;;;;;;;;;;;;19.74;55.37;97431.23;605313;234;67640;-71
2023/10/10 10:25:31;;;;;;;;;;;;;;;19.73;55.42;97435.77;605782;234;62487;-72
2023/10/10 10:28:10;;;;;;;;;;;;;;;19.72;55.37;97431.50;605844;234;65033;-74
2023/10/10 10:32:59;;;;;;;;;;;;;;;19.73;55.75;97427.77;604662;234;64624;-72
2023/10/10 10:35:36;;;;;;;;;;;;;;;19.72;55.90;97426.16;605704;234;67067;-71
2023/10/10 10:37:58;;;;;;;;;;;;;;;19.72;56.01;97420.83;606092;234;64874;-77
2023/10/10 10:43:20;;;;;;;;;;;;;;;19.73;55.34;97414.43;606464;234;66792;-70
2023/10/10 10:45:45;;;;;;;;;;;;;;;19.73;55.23;97416.30;605960;234;66835;-72
2023/10/10 10:51:22;;;;;;;;;;;;;;;19.72;55.10;97412.83;600827;236;64906;-70
2023/10/10 10:53:50;;;;;;;;;;;;;;;19.73;55.00;97411.77;599725;236;66955;-71
2023/10/10 11:01:30;;;;;;;;;;;;;;;19.73;54.91;97408.30;601214;235;67824;-70
2023/10/10 11:03:58;;;;;;;;;;;;;;;19.73;54.95;97403.77;601386;233;62559;-70
2023/10/10 11:06:26;;;;;;;;;;;;;;;19.72;54.95;97404.83;601280;235;66936;-69
2023/10/10 11:09:07;;;;;;;;;;;;;;;19.73;55.00;97403.77;601351;235;65412;-70
2023/10/10 11:14:00;;;;;;;;;;;;;;;19.74;54.90;97396.56;601331;235;66927;-70
2023/10/10 11:16:36;;;;;;;;;;;;;;;19.74;54.87;97399.23;601133;235;66679;-69
2023/10/10 11:19:04;;;;;;;;;;;;;;;19.74;54.87;97401.89;601434;234;62491;-69
2023/10/10 11:21:28;;;;;;;;;;;;;;;19.75;54.88;97400.83;600891;236;64801;-70
2023/10/10 11:23:58;;;;;;;;;;;;;;;19.74;54.85;97399.23;601163;235;66819;-70
2023/10/10 11:26:33;;;;;;;;;;;;;;;19.74;54.89;97399.23;601106;235;62740;-70
2023/10/10 11:28:59;;;;;;;;;;;;;;;19.74;54.92;97397.36;600968;236;65625;-73
2023/10/10 11:31:29;;;;;;;;;;;;;;;19.74;54.95;97399.23;601423;235;66654;-69
2023/10/10 11:34:10;;;;;;;;;;;;;;;19.76;54.92;97396.33;601305;235;62382;-72
2023/10/10 11:36:38;;;;;;;;;;;;;;;19.77;54.96;97400.59;601308;236;67022;-70
2023/10/10 11:39:16;;;;;;;;;;;;;;;19.77;54.98;97400.59;601206;235;65092;-66
2023/10/10 11:41:45;;;;;;;;;;;;;;;19.77;55.02;97396.05;601387;234;64607;-66
2023/10/10 11:44:14;;;;;;;;;;;;;;;19.78;55.05;97399.52;601352;234;67320;-67
2023/10/10 11:46:42;;;;;;;;;;;;;;;19.77;55.10;97398.72;600252;236;67285;-66
2023/10/10 11:49:17;;;;;;;;;;;;;;;19.78;55.15;97402.19;601442;233;64848;-65
2023/10/10 11:51:46;;;;;;;;;;;;;;;19.78;55.21;97394.19;601207;235;67084;-66
2023/10/10 11:54:14;;;;;;;;;;;;;;;19.77;55.25;97398.72;601404;235;67088;-66
2023/10/10 11:56:46;;;;;;;;;;;;;;;19.78;55.32;97405.68;601467;235;64710;-66
2023/10/10 11:59:13;;;;;;;;;;;;;;;19.78;55.35;97402.19;601368;235;66891;-68
2023/10/10 12:01:51;;;;;;;;;;;;;;;19.78;55.35;97404.85;601406;235;71380;-69
2023/10/10 12:04:30;;;;;;;;;;;;;;;19.78;55.35;97403.02;601351;236;63500;-66
2023/10/10 12:06:48;;;;;;;;;;;;;;;19.79;55.37;97409.15;601400;235;67497;-68
2023/10/10 12:09:19;;;;;;;;;;;;;;;19.79;55.40;97401.14;601335;236;67165;-66
2023/10/10 12:11:45;;;;;;;;;;;;;;;19.78;55.43;97408.34;601382;235;64891;-71
2023/10/10 12:14:19;;;;;;;;;;;;;;;19.79;55.42;97407.28;601364;236;67178;-72
2023/10/10 12:16:43;;;;;;;;;;;;;;;19.80;55.48;97408.08;601375;235;67498;-70
2023/10/10 12:19:11;;;;;;;;;;;;;;;19.80;55.48;97402.74;601357;235;62367;-69
2023/10/10 12:21:38;;;;;;;;;;;;;;;19.80;55.51;97400.08;601316;234;67394;-70
2023/10/10 12:24:06;;;;;;;;;;;;;;;19.80;55.55;97400.88;601373;236;67066;-69
2023/10/10 12:26:39;;;;;;;;;;;;;;;19.80;55.56;97400.08;601490;235;62385;-71
2023/10/10 12:29:03;;;;;;;;;;;;;;;19.81;55.53;97401.70;601392;235;67359;-69
2023/10/10 12:31:34;;;;;;;;;;;;;;;19.81;55.55;97402.50;601391;236;66854;-70
2023/10/10 12:34:00;;;;;;;;;;;;;;;19.81;55.58;97407.04;601294;235;64666;-71
2023/10/10 12:36:32;;;;;;;;;;;;;;;19.82;55.58;97403.30;601380;235;65186;-73
2023/10/10 12:39:00;;;;;;;;;;;;;;;19.82;55.62;97406.77;601434;236;66929;-72
2023/10/10 12:41:27;;;;;;;;;;;;;;;19.83;55.59;97410.23;601326;236;64592;-70
2023/10/10 12:43:55;;;;;;;;;;;;;;;19.84;55.68;97403.86;601376;236;67880;-71
2023/10/10 12:46:23;;;;;;;;;;;;;;;19.85;55.72;97397.45;601348;236;64651;-70
2023/10/10 12:48:51;;;;;;;;;;;;;;;19.85;55.79;97400.13;602191;233;62985;-70
2023/10/10 12:51:22;;;;;;;;;;;;;;;19.84;55.83;97398.53;608973;232;67224;-69
2023/10/10 12:53:48;;;;;;;;;;;;;;;19.84;55.80;97393.99;608776;232;67400;-70
2023/10/10 12:56:19;;;;;;;;;;;;;;;19.83;55.82;97379.03;608446;232;64732;-71
2023/10/10 12:58:57;;;;;;;;;;;;;;;19.84;55.91;97382.52;608873;231;66973;-71
2023/10/10 13:01:25;;;;;;;;;;;;;;;19.83;55.90;97379.03;608871;230;64757;-71
2023/10/10 13:03:53;;;;;;;;;;;;;;;19.84;55.93;97382.52;609016;233;62743;-71
2023/10/10 13:06:22;;;;;;;;;;;;;;;19.84;55.91;97382.52;609042;232;67251;-71
2023/10/10 13:11:43;;;;;;;;;;;;;;;19.84;55.89;97375.32;609142;233;63477;-71
2023/10/10 13:14:10;;;;;;;;;;;;;;;19.85;55.90;97378.78;608156;233;64555;-71
2023/10/10 13:16:52;;;;;;;;;;;;;;;19.86;55.92;97377.72;609017;231;67038;-72
2023/10/10 13:19:09;;;;;;;;;;;;;;;19.87;56.08;97377.48;608084;233;64561;-72
2023/10/10 13:21:37;;;;;;;;;;;;;;;19.87;55.85;97382.02;608975;233;67249;-72
2023/10/10 13:24:09;;;;;;;;;;;;;;;19.85;55.83;97378.78;608787;231;65160;-70
2023/10/10 13:26:35;;;;;;;;;;;;;;;19.84;55.73;97377.98;609007;231;62477;-69
2023/10/10 13:29:03;;;;;;;;;;;;;;;19.84;55.67;97375.32;608849;232;67261;-69
2023/10/10 13:31:30;;;;;;;;;;;;;;;19.86;55.61;97380.39;609156;230;66883;-69
2023/10/10 13:33:58;;;;;;;;;;;;;;;19.84;55.53;97375.32;608952;232;64538;-70
2023/10/10 13:36:25;;;;;;;;;;;;;;;19.85;55.49;97378.78;609075;232;64812;-68
2023/10/10 13:38:58;;;;;;;;;;;;;;;19.85;55.43;97378.78;609116;232;66956;-68
2023/10/10 13:41:23;;;;;;;;;;;;;;;19.85;55.43;97376.12;608954;231;64620;-68
2023/10/10 13:43:51;;;;;;;;;;;;;;;19.85;55.43;97378.78;609042;231;67211;-68
2023/10/10 13:46:20;;;;;;;;;;;;;;;19.85;55.41;97381.45;608911;233;64714;-69
2023/10/10 13:48:48;;;;;;;;;;;;;;;19.86;55.40;97369.72;607754;230;62727;-68
2023/10/10 13:51:16;;;;;;;;;;;;;;;19.85;55.36;97368.91;601364;236;67425;-68
2023/10/10 13:53:47;;;;;;;;;;;;;;;19.85;55.34;97371.59;596116;236;67276;-68
2023/10/10 13:56:16;;;;;;;;;;;;;;;19.85;55.36;97368.12;601285;233;63973;-68
2023/10/10 13:58:48;;;;;;;;;;;;;;;19.86;55.38;97369.72;601302;236;67186;-68
2023/10/10 14:01:29;;;;;;;;;;;;;;;19.86;55.34;97369.72;601383;235;66838;-68
2023/10/10 14:03:48;;;;;;;;;;;;;;;19.87;55.35;97371.34;601431;235;64870;-67
2023/10/10 14:06:19;;;;;;;;;;;;;;;19.86;55.39;97373.22;601364;236;67195;-70
2023/10/10 14:08:51;;;;;;;;;;;;;;;19.86;55.44;97365.21;601393;236;67468;-71
2023/10/10 14:11:22;;;;;;;;;;;;;;;19.88;55.41;97372.94;601400;235;64915;-69
2023/10/10 14:13:50;;;;;;;;;;;;;;;19.88;55.46;97367.61;601363;233;67236;-72
2023/10/10 14:16:18;;;;;;;;;;;;;;;19.88;55.49;97367.61;601424;236;64816;-71
2023/10/10 14:18:47;;;;;;;;;;;;;;;19.88;55.50;97373.73;601372;236;62447;-70
2023/10/10 14:21:24;;;;;;;;;;;;;;;19.87;55.57;97372.14;601416;236;67303;-73
2023/10/10 14:23:45;;;;;;;;;;;;;;;19.88;55.61;97359.60;601362;234;67288;-70
2023/10/10 14:26:13;;;;;;;;;;;;;;;19.88;55.61;97367.61;601380;236;63500;-69
2023/10/10 14:28:41;;;;;;;;;;;;;;;19.88;55.59;97368.41;601360;233;66757;-72
2023/10/10 14:31:13;;;;;;;;;;;;;;;19.88;55.63;97368.41;601383;235;66993;-70
2023/10/10 14:33:40;;;;;;;;;;;;;;;19.88;55.60;97365.73;601354;235;62543;-70
2023/10/10 14:36:11;;;;;;;;;;;;;;;19.89;55.65;97372.70;601371;236;68214;-69
2023/10/10 14:38:44;;;;;;;;;;;;;;;19.90;55.66;97371.63;601388;235;63871;-69
2023/10/10 14:41:11;;;;;;;;;;;;;;;19.89;55.57;97374.56;601326;236;64777;-69
2023/10/10 14:43:39;;;;;;;;;;;;;;;19.89;55.61;97380.70;601403;236;67248;-72
2023/10/10 14:46:09;;;;;;;;;;;;;;;19.89;55.63;97386.03;601384;236;66964;-71
2023/10/10 14:48:35;;;;;;;;;;;;;;;19.89;55.63;97371.90;601378;233;65934;-69
2023/10/10 14:51:05;;;;;;;;;;;;;;;19.90;55.66;97384.17;608882;232;66769;-69
2023/10/10 14:53:34;;;;;;;;;;;;;;;19.89;55.63;97382.57;608944;233;64709;-70
2023/10/10 14:56:05;;;;;;;;;;;;;;;19.90;55.61;97386.83;609009;233;65111;-69
2023/10/10 14:58:30;;;;;;;;;;;;;;;19.89;55.62;97386.03;609008;232;64829;-69
2023/10/10 15:00:58;;;;;;;;;;;;;;;19.89;55.64;97394.03;609076;232;64854;-71
2023/10/10 15:03:27;;;;;;;;;;;;;;;19.89;55.73;97387.91;608982;233;64906;-69
2023/10/10 15:05:55;;;;;;;;;;;;;;;19.92;56.01;97396.20;608931;232;67023;-69
2023/10/10 15:08:22;;;;;;;;;;;;;;;19.93;55.95;97394.33;608981;232;66910;-72
2023/10/10 15:10:51;;;;;;;;;;;;;;;19.94;56.14;97399.42;608993;232;62377;-73
2023/10/10 15:13:18;;;;;;;;;;;;;;;19.95;56.20;97410.89;608969;231;67276;-72
2023/10/10 15:15:47;;;;;;;;;;;;;;;19.98;56.15;97420.25;609153;232;66385;-72
2023/10/10 15:18:17;;;;;;;;;;;;;;;19.99;56.17;97417.31;608828;230;63088;-72
2023/10/10 15:20:46;;;;;;;;;;;;;;;20.00;56.32;97418.94;608983;233;66865;-72
2023/10/10 15:23:20;;;;;;;;;;;;;;;20.03;56.44;97423.76;608906;232;65163;-72
2023/10/10 15:25:54;;;;;;;;;;;;;;;20.05;56.51;97424.32;609099;231;64657;-72
2023/10/10 15:28:28;;;;;;;;;;;;;;;20.07;56.52;97429.38;609206;231;66829;-71
2023/10/10 15:30:57;;;;;;;;;;;;;;;20.08;56.51;97421.14;609204;232;66806;-71
2023/10/10 15:33:25;;;;;;;;;;;;;;;20.10;56.63;97434.20;608573;231;64845;-71
2023/10/10 15:35:52;;;;;;;;;;;;;;;20.12;56.57;97438.23;608938;230;64573;-72
2023/10/10 15:38:22;;;;;;;;;;;;;;;20.13;56.66;97431.86;609354;230;65631;-71
2023/10/10 15:40:52;;;;;;;;;;;;;;;20.14;56.71;97441.45;609109;233;64737;-71